Skip Navigation

Christman Field Latest Observations

Switch to metric unitsOther observation timesWeekly graphs

Date Time
MST
Temp
°F
RH
%
DewPt
°F
Wind
mph
Dir
°
Gust
mph
Dir
°
Press
in Hg
Solar
W/m^2
Prec
in
2018-10-23 17:20 53.3 59.7 39.6 5.1 314 5.8 313 24.877 1.2 0.00
2018-10-23 17:15 53.9 58.9 39.8 3.6 319 4.3 319 24.878 2.8 0.00
2018-10-23 17:10 54.7 57.1 39.8 3.3 331 3.8 331 24.881 10.4 0.00
2018-10-23 17:05 54.6 57.2 39.7 3.5 322 4.0 302 24.882 16.2 0.00
2018-10-23 17:00 54.8 57.2 40.0 3.8 300 4.4 296 24.884 19.5 0.00
2018-10-23 16:55 55.1 56.7 40.0 3.9 289 4.7 275 24.883 22.2 0.00
2018-10-23 16:50 55.5 56.1 40.1 3.8 283 4.7 274 24.883 23.1 0.00
2018-10-23 16:45 55.7 55.3 40.0 4.5 272 5.3 280 24.882 25.5 0.00
2018-10-23 16:40 56.4 54.7 40.3 4.7 285 5.3 296 24.882 34.0 0.00
2018-10-23 16:35 56.8 53.3 40.1 4.7 300 5.3 286 24.884 39.3 0.00
2018-10-23 16:30 57.3 52.9 40.3 3.6 286 5.3 286 24.886 42.3 0.00
2018-10-23 16:25 57.7 51.9 40.1 4.1 289 5.0 283 24.887 53.8 0.00
2018-10-23 16:20 58.0 50.7 39.8 5.7 280 6.6 287 24.887 64.6 0.00
2018-10-23 16:15 58.3 50.2 39.9 5.5 282 6.5 285 24.886 73.6 0.00
2018-10-23 16:10 58.5 50.6 40.2 4.7 296 6.0 296 24.885 92.2 0.00
2018-10-23 16:05 58.2 51.2 40.3 4.3 303 5.4 307 24.885 117.0 0.00
2018-10-23 16:00 58.0 51.6 40.3 4.7 311 5.2 324 24.884 102.1 0.00
2018-10-23 15:55 58.0 51.1 40.1 3.7 327 4.6 315 24.883 94.8 0.00
2018-10-23 15:50 58.1 51.3 40.2 3.9 323 4.7 329 24.884 96.5 0.00
2018-10-23 15:45 58.4 50.2 39.9 3.6 328 4.6 341 24.884 89.9 0.00
2018-10-23 15:40 59.0 48.7 39.7 3.3 335 4.6 342 24.885 83.0 0.00
2018-10-23 15:35 59.4 47.4 39.4 1.6 343 3.7 348 24.884 98.5 0.00
2018-10-23 15:30 59.9 46.7 39.5 3.0 281 4.5 328 24.885 123.5 0.00
2018-10-23 15:25 60.5 45.8 39.6 4.1 326 5.5 347 24.887 212.9 0.00
2018-10-23 15:20 60.2 46.0 39.4 3.3 311 5.0 330 24.889 251.6 0.00
2018-10-23 15:15 60.3 45.7 39.3 3.7 305 6.0 308 24.889 211.3 0.00
2018-10-23 15:10 60.1 46.7 39.6 4.0 276 5.4 324 24.890 269.8 0.00
2018-10-23 15:05 60.1 45.9 39.2 3.8 331 6.2 321 24.891 330.2 0.00
2018-10-23 15:00 59.6 47.1 39.4 4.6 349 6.0 337 24.893 310.0 0.00
2018-10-23 14:55 59.0 47.0 38.9 3.0 316 7.2 330 24.892 210.3 0.00